Time;durP1;ratioP1;P1;durP2;ratioP2;P2;SDS_P1;SDS_P2;PMS_P1;PMS_P2;Temp;Humidity;BMP_temperature;BMP_pressure;BME280_temperature;BME280_humidity;BME280_pressure;Samples;Min_cycle;Max_cycle;Signal;HPM_P1;HPM_P2
2023/09/27 00:00:42;;;;;;;2.05;1.25;;;;;;;;;;5030976;28;20401;-77
2023/09/27 00:03:08;;;;;;;1.40;1.30;;;;;;;;;;5030501;28;20060;-77
2023/09/27 00:05:34;;;;;;;2.92;1.30;;;;;;;;;;5031213;28;20060;-77
2023/09/27 00:08:00;;;;;;;2.15;1.25;;;;;;;;;;5030585;28;20711;-77
2023/09/27 00:10:27;;;;;;;1.95;1.58;;;;;;;;;;5038775;28;20498;-77
2023/09/27 00:12:53;;;;;;;1.98;1.20;;;;;;;;;;5034765;28;20030;-77
2023/09/27 00:15:19;;;;;;;3.05;1.75;;;;;;;;;;5033559;28;20027;-77
2023/09/27 00:17:46;;;;;;;7.43;1.52;;;;;;;;;;5030240;28;20413;-77
2023/09/27 00:20:15;;;;;;;3.40;1.30;;;;;;;;;;5030592;28;20017;-77
2023/09/27 00:22:42;;;;;;;3.15;1.40;;;12.40;84.10;;;;;;5030965;28;20075;-77
2023/09/27 00:25:08;;;;;;;5.10;2.42;;;12.50;84.70;;;;;;5043357;28;20038;-77
2023/09/27 00:27:35;;;;;;;3.58;1.30;;;12.50;82.90;;;;;;5043743;28;20039;-77
2023/09/27 00:30:02;;;;;;;1.98;1.58;;;;;;;;;;5045900;28;20033;-79
2023/09/27 00:32:28;;;;;;;2.00;1.23;;;;;;;;;;5030364;28;20045;-77
2023/09/27 00:34:54;;;;;;;4.30;1.60;;;;;;;;;;5030639;28;20570;-77
2023/09/27 00:37:20;;;;;;;3.95;1.17;;;;;;;;;;5030512;28;20025;-77
2023/09/27 00:39:46;;;;;;;2.25;1.00;;;;;;;;;;5029324;28;20022;-77
2023/09/27 00:42:12;;;;;;;3.42;1.60;;;;;;;;;;5041396;28;20035;-77
2023/09/27 00:44:39;;;;;;;3.83;2.00;;;;;;;;;;5033676;28;20112;-77
2023/09/27 00:47:05;;;;;;;4.70;1.80;;;;;;;;;;5030394;28;20052;-77
2023/09/27 00:49:31;;;;;;;3.00;1.38;;;;;;;;;;5030736;28;20021;-77
2023/09/27 00:51:58;;;;;;;4.70;2.10;;;12.00;88.40;;;;;;5045158;28;20405;-77
2023/09/27 00:54:24;;;;;;;4.07;2.00;;;;;;;;;;5049381;28;20014;-77
2023/09/27 00:56:51;;;;;;;7.57;1.58;;;12.00;88.70;;;;;;5045940;28;20021;-77
2023/09/27 00:59:17;;;;;;;;;;;12.00;90.20;;;;;;5030293;28;20041;-77
2023/09/27 01:01:45;;;;;;;2.28;1.60;;;11.80;92.30;;;;;;5030291;28;19904;-79
2023/09/27 01:04:13;;;;;;;2.63;1.58;;;11.90;88.40;;;;;;5029717;28;20050;-77
2023/09/27 01:06:40;;;;;;;2.88;1.63;;;11.70;88.80;;;;;;5030579;28;20784;-79
2023/09/27 01:09:06;;;;;;;4.93;2.08;;;;;;;;;;5029687;28;20548;-77
2023/09/27 01:11:33;;;;;;;1.38;1.27;;;11.70;90.20;;;;;;5033340;28;20029;-77
2023/09/27 01:13:59;;;;;;;5.30;2.33;;;;;;;;;;5037548;28;20067;-77
2023/09/27 01:16:25;;;;;;;3.13;1.55;;;;;;;;;;5029922;28;20128;-77
2023/09/27 01:18:51;;;;;;;2.50;1.48;;;;;;;;;;5029715;28;20101;-77
2023/09/27 01:21:19;;;;;;;2.67;1.48;;;;;;;;;;5029416;28;20417;-77
2023/09/27 01:23:48;;;;;;;1.42;1.10;;;11.90;89.10;;;;;;5040835;28;20036;-77
2023/09/27 01:26:16;;;;;;;1.73;1.30;;;11.80;88.90;;;;;;5047390;28;20478;-77
2023/09/27 01:28:42;;;;;;;2.55;1.30;;;;;;;;;;5049327;28;20279;-77
2023/09/27 01:31:08;;;;;;;3.72;1.77;;;;;;;;;;5029926;28;20053;-77
2023/09/27 01:33:34;;;;;;;3.55;1.83;;;;;;;;;;5029933;28;20025;-77
2023/09/27 01:36:02;;;;;;;4.38;1.77;;;;;;;;;;5034371;28;20083;-77
2023/09/27 01:38:29;;;;;;;2.97;1.50;;;;;;;;;;5036809;28;20037;-78
2023/09/27 01:40:55;;;;;;;3.63;1.48;;;;;;;;;;5048818;28;20466;-77
2023/09/27 01:43:21;;;;;;;2.22;1.40;;;;;;;;;;5048483;28;20025;-77
2023/09/27 01:45:47;;;;;;;1.67;1.13;;;;;;;;;;5047944;28;20036;-77
2023/09/27 01:48:13;;;;;;;2.83;1.70;;;;;;;;;;5048390;28;20502;-77
2023/09/27 01:50:39;;;;;;;2.55;1.13;;;;;;;;;;5043839;28;20039;-76
2023/09/27 01:53:05;;;;;;;2.33;1.85;;;;;;;;;;5048207;28;20100;-77
2023/09/27 01:55:31;;;;;;;1.88;1.38;;;;;;;;;;5047341;28;20461;-77
2023/09/27 01:57:58;;;;;;;2.28;1.77;;;;;;;;;;5046575;28;20394;-77
2023/09/27 02:00:23;;;;;;;3.17;1.38;;;11.20;93.40;;;;;;5047585;28;20025;-77
2023/09/27 02:02:50;;;;;;;2.55;1.35;;;;;;;;;;5048130;28;20032;-79
2023/09/27 02:05:16;;;;;;;2.47;1.60;;;11.00;99.90;;;;;;5047515;28;20250;-79
2023/09/27 02:07:42;;;;;;;2.22;1.60;;;;;;;;;;5046655;28;20442;-78
2023/09/27 02:10:09;;;;;;;2.03;1.67;;;10.80;99.90;;;;;;5043599;28;20029;-77
2023/09/27 02:12:36;;;;;;;3.08;1.40;;;;;;;;;;5040025;28;20545;-77
2023/09/27 02:15:03;;;;;;;2.33;1.40;;;;;;;;;;5035716;28;20029;-77
2023/09/27 02:17:29;;;;;;;3.25;1.75;;;;;;;;;;5048543;28;20032;-77
2023/09/27 02:19:55;;;;;;;2.90;1.85;;;;;;;;;;5029137;28;20025;-77
2023/09/27 02:22:21;;;;;;;3.05;1.30;;;;;;;;;;5032431;28;20111;-77
2023/09/27 02:24:50;;;;;;;3.30;1.60;;;;;;;;;;5052719;28;20040;-77
2023/09/27 02:27:16;;;;;;;2.60;1.73;;;;;;;;;;5049956;28;20021;-77
2023/09/27 02:29:42;;;;;;;6.60;1.83;;;11.20;92.00;;;;;;5033298;28;20029;-77
2023/09/27 02:32:09;;;;;;;1.98;1.55;;;11.10;92.80;;;;;;5033334;28;20513;-77
2023/09/27 02:34:37;;;;;;;3.60;1.60;;;11.10;93.10;;;;;;5033060;28;20486;-77
2023/09/27 02:37:04;;;;;;;2.13;1.40;;;;;;;;;;5046780;28;20155;-77
2023/09/27 02:39:30;;;;;;;1.73;1.52;;;;;;;;;;5045418;28;20091;-77
2023/09/27 02:41:57;;;;;;;3.92;1.30;;;;;;;;;;5033098;28;20108;-77
2023/09/27 02:44:23;;;;;;;3.30;1.57;;;;;;;;;;5052713;28;20416;-77
2023/09/27 02:46:51;;;;;;;2.55;1.58;;;;;;;;;;5051698;28;20464;-77
2023/09/27 02:49:19;;;;;;;3.67;1.55;;;;;;;;;;5052494;28;20031;-77
2023/09/27 02:51:47;;;;;;;3.53;1.58;;;;;;;;;;5050875;28;20025;-77
2023/09/27 02:54:14;;;;;;;1.45;1.13;;;;;;;;;;5052411;28;20052;-77
2023/09/27 02:56:40;;;;;;;1.05;0.90;;;;;;;;;;5051308;28;20032;-77
2023/09/27 02:59:06;;;;;;;1.42;1.05;;;;;;;;;;5050643;28;20037;-77
2023/09/27 03:01:32;;;;;;;2.42;1.38;;;;;;;;;;5051103;28;20108;-78
2023/09/27 03:03:58;;;;;;;3.28;1.55;;;;;;;;;;5051636;28;20092;-77
2023/09/27 03:06:25;;;;;;;3.90;1.60;;;;;;;;;;5051840;28;20033;-79
2023/09/27 03:08:50;;;;;;;4.82;2.45;;;;;;;;;;5052109;28;20035;-77
2023/09/27 03:11:17;;;;;;;2.25;1.70;;;;;;;;;;5050661;28;20108;-77
2023/09/27 03:13:43;;;;;;;2.05;1.60;;;10.70;95.80;;;;;;5052144;28;20546;-77
2023/09/27 03:16:10;;;;;;;3.23;1.73;;;;;;;;;;5051072;28;20503;-77
2023/09/27 03:18:37;;;;;;;3.60;1.80;;;;;;;;;;5049824;28;20060;-77
2023/09/27 03:21:02;;;;;;;2.72;1.73;;;11.10;97.20;;;;;;5044474;28;20271;-77
2023/09/27 03:23:29;;;;;;;5.18;1.95;;;10.80;94.70;;;;;;5041349;28;20489;-77
2023/09/27 03:25:56;;;;;;;2.25;1.40;;;11.00;94.30;;;;;;5049257;28;20037;-77
2023/09/27 03:28:22;;;;;;;3.17;1.60;;;10.90;94.10;;;;;;5051028;28;20025;-78
2023/09/27 03:30:48;;;;;;;5.87;1.70;;;;;;;;;;5050721;28;20032;-77
2023/09/27 03:33:14;;;;;;;2.80;1.40;;;;;;;;;;5050069;28;20032;-77
2023/09/27 03:35:41;;;;;;;3.17;1.58;;;;;;;;;;5049254;28;20045;-77
2023/09/27 03:38:07;;;;;;;2.10;1.50;;;10.80;93.70;;;;;;5050748;28;20028;-79
2023/09/27 03:40:33;;;;;;;3.60;1.42;;;10.50;95.50;;;;;;5050039;28;20029;-77
2023/09/27 03:42:59;;;;;;;9.82;2.22;;;;;;;;;;5050645;28;20017;-77
2023/09/27 03:45:25;;;;;;;2.13;1.60;;;;;;;;;;5050700;28;20045;-77
2023/09/27 03:47:51;;;;;;;2.25;2.03;;;;;;;;;;5051229;28;20049;-77
2023/09/27 03:50:17;;;;;;;3.90;1.75;;;10.40;99.90;;;;;;5050005;28;20028;-77
2023/09/27 03:52:43;;;;;;;2.35;1.50;;;;;;;;;;5050863;28;20028;-77
2023/09/27 03:55:10;;;;;;;5.53;1.95;;;;;;;;;;5048282;28;20025;-77
2023/09/27 03:57:36;;;;;;;2.60;1.98;;;;;;;;;;5050794;28;20025;-76
2023/09/27 04:00:06;;;;;;;25.15;2.92;;;;;;;;;;5048814;28;20032;-77
2023/09/27 04:02:32;;;;;;;3.55;1.58;;;;;;;;;;5050101;28;20107;-77
2023/09/27 04:04:58;;;;;;;1.50;1.13;;;;;;;;;;5048376;28;20130;-77
2023/09/27 04:07:25;;;;;;;1.98;1.88;;;;;;;;;;5049165;28;20032;-78
2023/09/27 04:09:50;;;;;;;1.90;1.65;;;10.60;99.90;;;;;;5043731;28;20028;-77
2023/09/27 04:12:16;;;;;;;3.80;2.00;;;;;;;;;;5041506;28;20021;-79
2023/09/27 04:14:42;;;;;;;2.20;1.48;;;;;;;;;;5049087;28;20468;-77
2023/09/27 04:17:08;;;;;;;3.40;1.67;;;;;;;;;;5049202;28;20017;-77
2023/09/27 04:19:34;;;;;;;1.80;1.50;;;;;;;;;;5048488;28;20106;-77
2023/09/27 04:22:00;;;;;;;4.45;1.80;;;;;;;;;;5037391;28;20403;-77
2023/09/27 04:24:27;;;;;;;1.30;1.20;;;;;;;;;;5030786;28;20030;-77
2023/09/27 04:26:53;;;;;;;2.88;1.65;;;;;;;;;;5031893;28;20029;-77
2023/09/27 04:29:20;;;;;;;5.40;1.33;;;10.50;97.60;;;;;;5031300;28;20490;-77
2023/09/27 04:31:46;;;;;;;1.20;1.10;;;;;;;;;;5031074;28;20511;-77
2023/09/27 04:34:12;;;;;;;2.22;1.50;;;;;;;;;;5032016;28;20021;-77
2023/09/27 04:36:38;;;;;;;1.92;1.65;;;;;;;;;;5031114;28;20041;-77
2023/09/27 04:39:18;;;;;;;2.03;1.38;;;;;;;;;;5031790;28;20406;-77
2023/09/27 04:41:46;;;;;;;3.38;1.35;;;;;;;;;;5031946;28;20439;-77
2023/09/27 04:44:13;;;;;;;3.75;1.30;;;;;;;;;;5036811;28;20021;-79
2023/09/27 04:46:38;;;;;;;3.42;2.00;;;10.40;99.90;;;;;;5038024;28;20049;-77
2023/09/27 04:49:04;;;;;;;2.78;1.80;;;;;;;;;;5032258;28;20026;-77
2023/09/27 04:51:30;;;;;;;2.97;1.90;;;;;;;;;;5030875;28;20053;-77
2023/09/27 04:54:00;;;;;;;3.33;2.05;;;;;;;;;;5031782;28;20104;-79
2023/09/27 04:56:27;;;;;;;4.25;1.60;;;;;;;;;;5030934;28;20410;-79
2023/09/27 04:58:53;;;;;;;2.97;2.20;;;;;;;;;;5031623;28;20018;-79
2023/09/27 05:01:19;;;;;;;2.45;1.60;;;;;;;;;;5029477;28;20040;-77
2023/09/27 05:03:45;;;;;;;4.03;2.60;;;;;;;;;;5031147;28;20072;-77
2023/09/27 05:06:11;;;;;;;3.85;2.60;;;;;;;;;;5030588;28;20628;-77
2023/09/27 05:08:37;;;;;;;5.10;2.92;;;;;;;;;;5031411;28;20021;-77
2023/09/27 05:11:03;;;;;;;3.20;2.13;;;;;;;;;;5031549;28;20441;-78
2023/09/27 05:13:29;;;;;;;4.85;2.42;;;;;;;;;;5031224;28;20053;-77
2023/09/27 05:15:54;;;;;;;3.22;2.40;;;;;;;;;;5032231;28;20467;-77
2023/09/27 05:18:22;;;;;;;5.05;1.80;;;;;;;;;;5030839;28;20026;-77
2023/09/27 05:20:48;;;;;;;;;;;9.90;99.90;;;;;;5031019;28;20399;-77
2023/09/27 05:23:14;;;;;;;2.00;1.63;;;;;;;;;;5032660;28;19909;-77
2023/09/27 05:25:40;;;;;;;3.80;1.50;;;;;;;;;;5029731;28;20038;-77
2023/09/27 05:28:06;;;;;;;3.22;1.65;;;;;;;;;;5026428;28;20035;-77
2023/09/27 05:30:32;;;;;;;1.63;1.52;;;;;;;;;;5028530;28;20017;-78
2023/09/27 05:32:58;;;;;;;3.92;2.42;;;;;;;;;;5031163;28;20022;-77
2023/09/27 05:35:24;;;;;;;2.47;1.70;;;;;;;;;;5033647;28;20062;-77
2023/09/27 05:37:50;;;;;;;3.92;2.17;;;;;;;;;;5031340;28;20447;-77
2023/09/27 05:40:16;;;;;;;2.30;1.60;;;;;;;;;;5032973;28;20028;-78
2023/09/27 05:42:44;;;;;;;5.80;1.30;;;;;;;;;;5046722;28;20359;-78
2023/09/27 05:45:11;;;;;;;2.58;1.52;;;;;;;;;;5038242;28;20094;-78
2023/09/27 05:47:37;;;;;;;3.22;1.50;;;;;;;;;;5040746;28;20037;-78
2023/09/27 05:50:04;;;;;;;1.63;1.42;;;;;;;;;;5045639;28;20033;-87
2023/09/27 05:52:30;;;;;;;2.58;1.50;;;;;;;;;;5037203;28;20030;-83
2023/09/27 05:54:56;;;;;;;3.20;1.75;;;;;;;;;;5038771;28;20074;-75
2023/09/27 05:57:22;;;;;;;1.85;1.58;;;10.50;98.30;;;;;;5033478;28;20021;-77
2023/09/27 05:59:49;;;;;;;2.28;1.77;;;;;;;;;;5039569;28;20028;-77
2023/09/27 06:02:20;;;;;;;3.85;2.95;;;;;;;;;;5033533;28;20103;-74
2023/09/27 06:04:47;;;;;;;2.75;2.20;;;10.20;99.90;;;;;;5025800;28;20033;-78
2023/09/27 06:07:16;;;;;;;6.88;2.50;;;;;;;;;;5027825;28;20045;-77
2023/09/27 06:09:42;;;;;;;3.63;2.30;;;;;;;;;;5031916;28;20037;-77
2023/09/27 06:12:10;;;;;;;2.65;1.98;;;;;;;;;;5035507;28;20021;-77
2023/09/27 06:14:36;;;;;;;4.53;2.30;;;10.30;97.00;;;;;;5038258;28;20065;-77
2023/09/27 06:17:03;;;;;;;2.42;2.00;;;10.30;97.10;;;;;;5039826;28;20025;-76
2023/09/27 06:19:31;;;;;;;2.90;1.70;;;10.30;97.20;;;;;;5037836;28;20120;-77
2023/09/27 06:21:58;;;;;;;4.40;1.80;;;;;;;;;;5036105;28;20021;-91
2023/09/27 06:24:24;;;;;;;1.75;1.60;;;;;;;;;;5035770;28;20033;-90
2023/09/27 06:26:50;;;;;;;3.28;2.65;;;;;;;;;;5038718;28;20060;-86
2023/09/27 06:29:19;;;;;;;3.28;2.65;;;;;;;;;;5030449;28;20034;-88
2023/09/27 06:31:45;;;;;;;7.78;4.78;;;;;;;;;;5033271;28;20021;-89
2023/09/27 06:34:14;;;;;;;3.40;3.08;;;;;;;;;;5030567;28;20057;-88
2023/09/27 06:36:42;;;;;;;4.28;3.53;;;;;;;;;;5040946;28;20104;-85
2023/09/27 06:39:12;;;;;;;2.65;2.33;;;;;;;;;;5040057;28;20037;-85
2023/09/27 06:41:39;;;;;;;3.78;2.65;;;;;;;;;;5044108;28;20036;-82
2023/09/27 06:44:06;;;;;;;4.40;2.90;;;;;;;;;;5032895;28;20446;-85
2023/09/27 06:46:32;;;;;;;8.25;2.30;;;;;;;;;;5035309;28;20116;-80
2023/09/27 06:48:59;;;;;;;2.35;1.85;;;;;;;;;;5039675;28;20037;-80
2023/09/27 06:51:25;;;;;;;3.10;1.73;;;;;;;;;;5037673;28;20025;-83
2023/09/27 06:53:50;;;;;;;2.95;2.50;;;30.20;52.50;;;;;;5047496;28;20025;-79
2023/09/27 06:56:16;;;;;;;2.88;2.58;;;;;;;;;;5043621;28;20074;-79
2023/09/27 06:58:42;;;;;;;2.25;2.03;;;;;;;;;;5038859;28;20087;-80
2023/09/27 07:01:10;;;;;;;2.70;2.28;;;;;;;;;;5043650;28;20125;-79
2023/09/27 07:03:36;;;;;;;2.45;1.80;;;;;;;;;;5040775;28;20077;-79
2023/09/27 07:06:02;;;;;;;;;;;32.30;40.10;;;;;;5036315;28;20549;-80
2023/09/27 07:08:28;;;;;;;1.90;1.65;;;34.50;44.30;;;;;;5037861;28;19905;-79
2023/09/27 07:10:54;;;;;;;3.15;2.20;;;;;;;;;;5036389;28;20029;-79
2023/09/27 07:13:21;;;;;;;3.78;2.50;;;;;;;;;;5037826;28;20029;-79
2023/09/27 07:15:48;;;;;;;5.18;2.53;;;;;;;;;;5023647;28;20099;-80
2023/09/27 07:18:13;;;;;;;3.42;3.10;;;40.40;32.00;;;;;;5033844;28;20029;-79
2023/09/27 07:20:41;;;;;;;3.92;3.47;;;42.00;32.90;;;;;;5031604;28;20107;-78
2023/09/27 07:23:08;;;;;;;3.03;2.08;;;;;;;;;;5037301;28;20041;-79
2023/09/27 07:25:37;;;;;;;2.72;1.73;;;43.80;27.70;;;;;;5049563;28;20036;-80
2023/09/27 07:28:04;;;;;;;3.22;2.60;;;44.80;28.10;;;;;;5037551;28;20490;-75
2023/09/27 07:30:37;;;;;;;4.13;3.13;;;45.80;26.50;;;;;;5048873;28;20064;-74
2023/09/27 07:33:10;;;;;;;3.00;2.15;;;46.80;26.10;;;;;;5041703;28;20061;-74
2023/09/27 07:35:41;;;;;;;2.28;2.00;;;;;;;;;;5031930;28;20120;-74
2023/09/27 07:38:08;;;;;;;2.20;1.65;;;;;;;;;;5038234;28;20029;-74
2023/09/27 07:40:34;;;;;;;3.97;2.00;;;;;;;;;;5038542;28;20490;-73
2023/09/27 07:43:00;;;;;;;2.72;1.75;;;;;;;;;;5043597;28;20188;-74
2023/09/27 07:45:30;;;;;;;2.67;1.48;;;49.80;28.00;;;;;;5041383;28;20078;-73
2023/09/27 07:47:56;;;;;;;2.35;1.52;;;49.60;27.50;;;;;;5043982;28;20083;-74
2023/09/27 07:50:31;;;;;;;2.53;1.75;;;50.20;25.30;;;;;;5040414;28;20025;-74
2023/09/27 07:53:03;;;;;;;4.45;2.13;;;50.70;23.50;;;;;;5029386;28;20023;-75
2023/09/27 07:55:33;;;;;;;2.30;2.10;;;51.30;23.20;;;;;;5038690;28;20095;-75
2023/09/27 07:57:59;;;;;;;1.83;1.63;;;;;;;;;;5043205;28;20120;-75
2023/09/27 08:00:30;;;;;;;5.55;2.15;;;52.80;22.60;;;;;;5037546;28;20486;-73
2023/09/27 08:02:59;;;;;;;2.47;1.67;;;53.30;25.70;;;;;;5042670;28;20025;-77
2023/09/27 08:05:25;;;;;;;2.30;1.70;;;;;;;;;;5035991;28;20091;-76
2023/09/27 08:07:51;;;;;;;1.85;1.52;;;53.40;22.20;;;;;;5037099;28;20079;-76
2023/09/27 08:10:18;;;;;;;1.90;1.40;;;54.20;23.20;;;;;;5032320;28;20021;-77
2023/09/27 08:12:44;;;;;;;3.40;1.55;;;;;;;;;;5041865;28;20045;-75
2023/09/27 08:15:12;;;;;;;5.35;1.73;;;55.20;24.10;;;;;;5047146;28;20028;-75
2023/09/27 08:17:39;;;;;;;5.60;1.70;;;55.30;21.30;;;;;;5041714;28;20041;-75
2023/09/27 08:20:07;;;;;;;2.72;1.50;;;55.60;21.10;;;;;;5037868;28;20132;-75
2023/09/27 08:22:34;;;;;;;3.85;1.88;;;;;;;;;;5029000;28;20033;-77
2023/09/27 08:25:00;;;;;;;2.65;1.48;;;;;;;;;;5037469;28;20559;-75
2023/09/27 08:27:26;;;;;;;2.45;1.73;;;55.00;23.60;;;;;;5044767;28;20375;-76
2023/09/27 08:29:53;;;;;;;2.17;1.88;;;55.30;20.20;;;;;;5036978;28;20033;-78
2023/09/27 08:32:19;;;;;;;5.03;1.45;;;;;;;;;;5031720;28;20033;-77
2023/09/27 08:34:46;;;;;;;1.65;1.55;;;56.60;20.20;;;;;;5033643;28;20454;-77
2023/09/27 08:37:12;;;;;;;2.08;1.50;;;;;;;;;;5033912;28;20070;-77
2023/09/27 08:39:39;;;;;;;2.20;1.90;;;57.80;22.30;;;;;;5031236;28;20056;-77
2023/09/27 08:42:05;;;;;;;2.85;2.03;;;;;;;;;;5033637;28;20025;-77
2023/09/27 08:44:31;;;;;;;3.63;1.80;;;58.10;19.80;;;;;;5029667;28;20030;-77
2023/09/27 08:46:58;;;;;;;2.22;1.70;;;;;;;;;;5037550;28;20108;-77
2023/09/27 08:49:25;;;;;;;1.45;1.35;;;58.40;19.50;;;;;;5038254;28;20486;-76
2023/09/27 08:51:52;;;;;;;2.25;1.63;;;58.40;19.40;;;;;;5039851;28;20033;-79
2023/09/27 08:54:20;;;;;;;5.82;1.80;;;;;;;;;;5036961;28;20026;-76
2023/09/27 08:56:50;;;;;;;2.60;1.33;;;57.60;19.20;;;;;;5039866;28;20032;-75
2023/09/27 08:59:18;;;;;;;2.58;1.60;;;58.10;22.20;;;;;;5039450;28;20032;-75
2023/09/27 09:01:45;;;;;;;2.05;1.50;;;57.80;19.10;;;;;;5039072;28;20033;-75
2023/09/27 09:04:13;;;;;;;1.75;1.40;;;58.20;22.70;;;;;;5039789;28;20044;-76
2023/09/27 09:06:40;;;;;;;3.08;1.30;;;58.30;19.00;;;;;;5037685;28;20061;-75
2023/09/27 09:09:13;;;;;;;1.60;1.50;;;;;;;;;;5039295;28;20033;-75
2023/09/27 09:11:48;;;;;;;1.92;1.42;;;58.30;19.00;;;;;;5040118;28;20032;-76
2023/09/27 09:14:21;;;;;;;3.38;1.50;;;58.40;18.90;;;;;;5040995;28;20029;-75
2023/09/27 09:16:54;;;;;;;1.50;1.27;;;58.50;19.00;;;;;;5035417;28;20026;-78
2023/09/27 09:19:22;;;;;;;5.03;1.60;;;57.90;18.70;;;;;;5039222;28;20074;-78
2023/09/27 09:22:21;;;;;;;3.22;1.20;;;58.90;18.90;;;;;;5033891;28;20037;-78
2023/09/27 09:24:47;;;;;;;2.20;1.35;;;;;;;;;;4986054;28;20118;-77
2023/09/27 09:27:14;;;;;;;3.65;1.58;;;59.00;18.50;;;;;;4985820;28;20061;-76
2023/09/27 09:29:51;;;;;;;1.95;1.20;;;59.00;18.60;;;;;;4972900;28;20030;-76
2023/09/27 09:32:18;;;;;;;1.13;1.02;;;59.70;22.50;;;;;;4985854;28;20027;-76
2023/09/27 09:34:48;;;;;;;1.40;1.15;;;59.60;18.70;;;;;;4994421;28;20042;-77
2023/09/27 09:37:18;;;;;;;1.45;1.10;;;59.70;18.60;;;;;;4996746;28;20033;-76
2023/09/27 09:39:44;;;;;;;1.83;1.45;;;59.90;18.30;;;;;;4986855;28;20027;-79
2023/09/27 09:42:11;;;;;;;1.67;1.27;;;;;;;;;;4987407;28;20784;-77
2023/09/27 09:44:37;;;;;;;1.52;1.25;;;;;;;;;;4987458;28;20209;-77
2023/09/27 09:47:11;;;;;;;1.40;1.20;;;59.30;20.90;;;;;;4986642;28;20038;-76
2023/09/27 09:49:38;;;;;;;1.10;1.00;;;;;;;;;;4988129;28;20034;-77
2023/09/27 09:52:06;;;;;;;1.30;1.00;;;59.20;21.50;;;;;;4993586;28;20026;-75
2023/09/27 09:54:37;;;;;;;2.55;1.38;;;59.20;22.10;;;;;;5000276;28;20073;-76
2023/09/27 09:57:06;;;;;;;2.28;1.50;;;58.80;18.30;;;;;;4990418;28;20570;-76
2023/09/27 09:59:48;;;;;;;2.47;1.33;;;59.30;18.30;;;;;;5006589;28;20029;-77
2023/09/27 10:02:35;;;;;;;1.83;1.17;;;58.80;19.50;;;;;;5041098;28;20482;-76
2023/09/27 10:05:06;;;;;;;1.25;1.02;;;56.50;18.00;;;;;;5040082;28;20053;-77
2023/09/27 10:07:32;;;;;;;2.22;1.20;;;55.60;23.20;;;;;;5043727;28;20040;-76
2023/09/27 10:09:58;;;;;;;5.07;1.00;;;56.10;23.40;;;;;;5039199;28;20483;-75
2023/09/27 10:12:26;;;;;;;2.10;1.02;;;55.20;18.40;;;;;;5042907;28;20110;-76
2023/09/27 10:14:52;;;;;;;1.52;1.10;;;54.00;20.20;;;;;;5036787;28;20033;-76
2023/09/27 10:17:29;;;;;;;10.45;1.35;;;54.90;18.90;;;;;;5042331;28;20032;-77
2023/09/27 10:20:13;;;;;;;2.05;1.02;;;55.10;18.80;;;;;;5042749;28;20043;-74
2023/09/27 10:22:42;;;;;;;;;;;55.10;19.10;;;;;;5030855;28;20071;-74
2023/09/27 10:25:26;;;;;;;2.33;1.27;;;55.20;20.80;;;;;;5027987;28;19905;-74
2023/09/27 10:28:19;;;;;;;2.45;0.98;;;55.20;22.90;;;;;;5027798;28;20049;-74
2023/09/27 10:30:45;;;;;;;4.72;1.17;;;;;;;;;;5028342;28;20021;-74
2023/09/27 10:33:16;;;;;;;1.83;1.17;;;53.40;18.90;;;;;;5027396;28;20060;-74
2023/09/27 10:35:44;;;;;;;2.05;1.00;;;52.50;19.40;;;;;;5031096;28;20634;-74
2023/09/27 10:38:10;;;;;;;1.55;1.10;;;;;;;;;;5035652;28;20041;-75
2023/09/27 10:40:50;;;;;;;3.53;1.52;;;54.50;18.70;;;;;;5028753;28;20025;-74
2023/09/27 10:43:34;;;;;;;2.30;1.10;;;53.70;23.90;;;;;;5039900;28;20507;-74
2023/09/27 10:46:04;;;;;;;4.80;0.83;;;52.80;18.90;;;;;;5033290;28;20052;-74
2023/09/27 10:48:30;;;;;;;1.48;0.77;;;;;;;;;;5036190;28;20040;-74
2023/09/27 10:50:56;;;;;;;3.75;1.30;;;53.00;23.50;;;;;;5037454;28;20499;-74
2023/09/27 10:53:22;;;;;;;0.95;0.70;;;52.90;21.50;;;;;;5041787;28;20032;-75
2023/09/27 10:55:48;;;;;;;1.88;0.85;;;53.20;23.60;;;;;;5030526;28;20040;-74
2023/09/27 10:58:15;;;;;;;2.38;1.17;;;52.70;18.90;;;;;;5037262;28;20029;-74
2023/09/27 11:00:57;;;;;;;1.17;0.68;;;53.30;19.10;;;;;;5035464;28;20615;-73
2023/09/27 11:03:23;;;;;;;2.38;0.90;;;52.20;18.80;;;;;;5034117;28;20021;-74
2023/09/27 11:05:49;;;;;;;2.10;0.90;;;51.40;22.10;;;;;;5030912;28;20467;-74
2023/09/27 11:08:23;;;;;;;3.53;1.08;;;51.80;24.60;;;;;;5044929;28;20055;-75
2023/09/27 11:10:52;;;;;;;3.38;0.80;;;;;;;;;;5040944;28;20030;-74
2023/09/27 11:13:17;;;;;;;4.68;0.77;;;51.40;24.00;;;;;;5010352;28;20162;-74
2023/09/27 11:15:44;;;;;;;1.88;0.80;;;;;;;;;;5030543;28;20037;-73
2023/09/27 11:18:10;;;;;;;2.67;0.90;;;49.80;22.30;;;;;;5030469;28;20026;-74
2023/09/27 11:20:36;;;;;;;3.08;1.45;;;46.00;26.00;;;;;;5030454;28;20033;-74
2023/09/27 11:23:03;;;;;;;2.85;0.90;;;42.60;27.80;;;;;;5029622;28;20060;-74
2023/09/27 11:25:37;;;;;;;4.32;1.02;;;40.00;25.40;;;;;;5030898;28;20029;-73
2023/09/27 11:28:03;;;;;;;1.50;0.65;;;38.10;26.60;;;;;;5016407;28;20028;-77
2023/09/27 11:30:31;;;;;;;1.73;0.77;;;37.00;23.00;;;;;;5030436;28;20033;-77
2023/09/27 11:33:04;;;;;;;3.08;1.50;;;37.20;23.30;;;;;;5018183;28;20057;-76
2023/09/27 11:35:30;;;;;;;1.75;1.08;;;;;;;;;;5030282;28;20033;-76
2023/09/27 11:38:09;;;;;;;1.33;0.68;;;38.60;30.80;;;;;;5029812;28;20026;-76
2023/09/27 11:40:36;;;;;;;1.25;0.77;;;;;;;;;;5030042;28;20544;-76
2023/09/27 11:43:02;;;;;;;2.35;0.82;;;;;;;;;;5030271;28;20498;-77
2023/09/27 11:45:40;;;;;;;2.03;0.70;;;39.70;30.70;;;;;;5030099;28;20029;-76
2023/09/27 11:48:06;;;;;;;2.30;1.10;;;;;;;;;;5029333;28;20026;-76
2023/09/27 11:50:33;;;;;;;1.38;0.80;;;;;;;;;;5029634;28;20025;-76
2023/09/27 11:52:59;;;;;;;2.88;1.30;;;;;;;;;;5028696;28;20697;-76
2023/09/27 11:55:25;;;;;;;1.88;0.95;;;42.90;25.80;;;;;;5030251;28;20037;-76
2023/09/27 11:57:57;;;;;;;2.45;0.85;;;43.20;21.90;;;;;;5030118;28;20112;-76
2023/09/27 12:00:23;;;;;;;3.15;1.20;;;;;;;;;;5029046;28;20458;-78
2023/09/27 12:02:49;;;;;;;2.50;0.98;;;41.90;24.00;;;;;;5029853;28;20060;-77
2023/09/27 12:05:16;;;;;;;1.30;0.73;;;41.30;29.30;;;;;;5029904;28;20103;-75
2023/09/27 12:07:43;;;;;;;11.50;1.92;;;41.10;30.00;;;;;;5033817;28;20028;-75
2023/09/27 12:10:10;;;;;;;2.13;1.10;;;;;;;;;;5029265;28;20025;-75
2023/09/27 12:12:36;;;;;;;2.33;0.98;;;39.30;31.20;;;;;;5029674;28;20083;-76
2023/09/27 12:15:03;;;;;;;3.50;1.30;;;;;;;;;;5029679;28;20493;-75
2023/09/27 12:17:30;;;;;;;1.95;1.15;;;;;;;;;;5029694;28;20107;-75
2023/09/27 12:19:56;;;;;;;2.92;0.80;;;37.60;33.20;;;;;;5029759;28;20026;-76
2023/09/27 12:22:24;;;;;;;2.13;1.13;;;;;;;;;;5028478;28;20044;-82
2023/09/27 12:24:50;;;;;;;1.95;1.10;;;;;;;;;;5018414;28;20056;-86
2023/09/27 12:27:16;;;;;;;4.15;0.90;;;;;;;;;;5030299;28;20022;-82
2023/09/27 12:29:42;;;;;;;2.50;0.90;;;35.40;35.00;;;;;;5029614;28;20048;-83
2023/09/27 12:32:08;;;;;;;2.20;0.80;;;;;;;;;;5028743;28;20083;-85
2023/09/27 12:34:34;;;;;;;4.13;1.23;;;34.30;28.40;;;;;;5030575;28;20398;-81
2023/09/27 12:37:00;;;;;;;3.08;0.90;;;;;;;;;;5028600;28;20103;-80
2023/09/27 12:39:25;;;;;;;2.63;1.00;;;34.30;37.20;;;;;;5029936;28;20372;-79
2023/09/27 12:41:51;;;;;;;1.47;1.07;;;;;;;;;;5029385;28;20071;-80
2023/09/27 12:44:18;;;;;;;5.03;1.40;;;;;;;;;;5029406;28;20025;-80
2023/09/27 12:46:44;;;;;;;3.45;1.75;;;;;;;;;;5029381;28;20048;-80
2023/09/27 12:49:11;;;;;;;2.50;1.15;;;;;;;;;;5024404;28;20033;-80
2023/09/27 12:51:38;;;;;;;2.45;1.15;;;;;;;;;;5023245;28;20503;-80
2023/09/27 12:54:04;;;;;;;3.80;1.05;;;;;;;;;;5029797;28;20030;-80
2023/09/27 12:56:30;;;;;;;3.53;1.10;;;;;;;;;;5029098;28;20052;-81
2023/09/27 12:58:56;;;;;;;1.02;0.73;;;;;;;;;;5029204;28;20056;-80
2023/09/27 13:01:22;;;;;;;3.78;1.00;;;;;;;;;;5029240;28;20471;-80
2023/09/27 13:03:48;;;;;;;3.20;0.50;;;;;;;;;;5029106;28;20033;-81
2023/09/27 13:06:14;;;;;;;1.75;0.93;;;;;;;;;;5023714;28;20038;-80
2023/09/27 13:08:40;;;;;;;2.53;1.10;;;;;;;;;;5029382;28;20162;-84
2023/09/27 13:11:07;;;;;;;1.53;0.90;;;;;;;;;;5029672;28;20131;-81
2023/09/27 13:13:33;;;;;;;2.20;1.08;;;32.50;38.10;;;;;;5029055;28;20402;-85
2023/09/27 13:15:59;;;;;;;1.20;0.67;;;;;;;;;;5029081;28;20140;-83
2023/09/27 13:18:27;;;;;;;2.08;0.90;;;31.90;27.20;;;;;;5028830;28;20115;-83
2023/09/27 13:20:53;;;;;;;3.35;0.98;;;;;;;;;;5027613;28;20037;-80
2023/09/27 13:23:19;;;;;;;9.45;1.33;;;;;;;;;;5028956;28;20018;-79
2023/09/27 13:25:54;;;;;;;6.47;0.70;;;30.20;30.70;;;;;;5028301;28;20133;-82
2023/09/27 13:28:20;;;;;;;2.28;1.10;;;;;;;;;;5027674;28;20760;-76
2023/09/27 13:30:46;;;;;;;3.33;1.43;;;29.70;40.00;;;;;;5028342;28;20039;-73
2023/09/27 13:33:12;;;;;;;4.32;1.65;;;;;;;;;;5028467;28;20636;-74
2023/09/27 13:35:37;;;;;;;4.30;1.30;;;30.10;37.40;;;;;;5026831;28;20110;-77
2023/09/27 13:38:07;;;;;;;3.33;1.42;;;30.50;38.30;;;;;;5028320;28;20083;-73
2023/09/27 13:40:33;;;;;;;3.08;1.45;;;30.00;37.00;;;;;;5027831;28;20491;-74
2023/09/27 13:42:58;;;;;;;3.83;1.67;;;29.90;32.00;;;;;;5028198;28;20155;-74
2023/09/27 13:45:24;;;;;;;5.40;1.20;;;29.70;33.80;;;;;;5043151;28;20033;-73
2023/09/27 13:47:50;;;;;;;3.27;1.23;;;;;;;;;;5059432;28;20104;-74
2023/09/27 13:50:16;;;;;;;1.88;0.73;;;29.40;40.80;;;;;;5027462;28;20147;-74
2023/09/27 13:52:41;;;;;;;3.13;1.30;;;29.70;40.10;;;;;;5027374;28;20030;-73